Time;durP1;ratioP1;P1;durP2;ratioP2;P2;SDS_P1;SDS_P2;PMS_P1;PMS_P2;Temp;Humidity;BMP_temperature;BMP_pressure;BME280_temperature;BME280_humidity;BME280_pressure;Samples;Min_cycle;Max_cycle;Signal;HPM_P1;HPM_P2
2023/03/20 00:01:59;;;;;;;15.55;9.77;;;;;;;12.26;37.97;99121.88;4250222;33;33584;-89
2023/03/20 00:04:28;;;;;;;17.17;10.07;;;;;;;12.37;38.25;99119.34;4260636;33;34262;-91
2023/03/20 00:06:56;;;;;;;15.75;9.90;;;;;;;12.44;37.79;99113.31;4273785;33;33932;-90
2023/03/20 00:09:25;;;;;;;16.73;10.05;;;;;;;12.39;37.98;99125.44;4272158;33;33653;-91
2023/03/20 00:11:54;;;;;;;19.37;10.00;;;;;;;12.47;38.09;99126.34;4272743;33;34212;-91
2023/03/20 00:14:23;;;;;;;16.00;9.63;;;;;;;12.35;38.05;99116.75;4260599;33;34943;-89
2023/03/20 00:16:51;;;;;;;17.30;9.80;;;;;;;12.05;38.94;99117.44;4248792;33;34007;-90
2023/03/20 00:19:24;;;;;;;14.80;9.10;;;;;;;12.33;38.47;99121.06;4273381;33;32768;-88
2023/03/20 00:21:53;;;;;;;15.40;8.85;;;;;;;12.52;38.19;99114.22;4270886;33;33718;-89
2023/03/20 00:24:22;;;;;;;16.65;8.93;;;;;;;12.58;38.17;99111.66;4248470;33;34021;-90
2023/03/20 00:26:51;;;;;;;17.62;9.52;;;;;;;12.60;38.10;99122.91;4258420;33;34052;-90
2023/03/20 00:29:29;;;;;;;15.77;10.27;;;;;;;12.54;38.32;99120.28;4259686;33;34408;-87
2023/03/20 00:31:58;;;;;;;20.00;10.40;;;;;;;12.54;38.29;99132.41;4260784;33;33540;-89
2023/03/20 00:34:28;;;;;;;21.45;11.10;;;;;;;12.40;38.44;99129.75;4271805;33;33584;-90
2023/03/20 00:36:56;;;;;;;18.85;11.00;;;;;;;12.21;38.94;99126.19;4265993;33;33786;-89
2023/03/20 00:39:25;;;;;;;18.80;10.55;;;;;;;12.12;39.70;99116.63;4259442;33;33426;-91
2023/03/20 00:42:00;;;;;;;17.33;10.18;;;;;;;12.20;39.06;99120.97;4258037;33;34631;-91
2023/03/20 00:44:37;;;;;;;19.77;10.67;;;;;;;12.41;39.09;99123.69;4234652;33;34205;-88
2023/03/20 00:47:19;;;;;;;17.17;10.13;;;;;;;12.43;39.65;99124.59;4246157;33;34122;-88
2023/03/20 00:49:49;;;;;;;19.40;10.55;;;;;;;11.98;38.95;99123.47;4258201;33;33531;-89
2023/03/20 00:52:18;;;;;;;17.87;9.77;;;;;;;12.09;38.84;99116.59;4264162;33;34745;-89
2023/03/20 00:54:45;;;;;;;17.50;10.45;;;;;;;12.19;39.21;99114.91;4274435;33;33702;-90
2023/03/20 00:57:16;;;;;;;19.58;10.70;;;;;;;12.37;39.17;99120.22;4262403;33;34076;-90
2023/03/20 01:00:08;;;;;;;17.77;10.43;;;;;;;12.34;38.85;99121.91;4287624;33;33135;-89
2023/03/20 01:02:36;;;;;;;16.80;9.95;;;;;;;12.34;40.17;99117.59;4256773;33;33665;-87
2023/03/20 01:05:04;;;;;;;17.75;10.25;;;;;;;12.45;39.87;99115.03;4285035;33;34277;-91
2023/03/20 01:07:32;;;;;;;19.20;10.40;;;;;;;12.38;40.31;99108.06;4260167;33;33186;-91
2023/03/20 01:10:03;;;;;;;16.90;10.10;;;;;;;12.43;39.45;99115.91;4260385;33;33658;-91
2023/03/20 01:12:31;;;;;;;17.08;10.65;;;;;;;12.41;40.35;99116.75;4257635;33;33793;-91
2023/03/20 01:14:59;;;;;;;18.58;10.05;;;;;;;12.52;40.00;99116.81;4260370;33;34865;-87
2023/03/20 01:17:28;;;;;;;17.40;9.80;;;;;;;12.49;40.31;99116.78;4261897;33;33215;-91
2023/03/20 01:19:56;;;;;;;16.05;9.95;;;;;;;12.50;40.39;99113.34;4252492;33;32879;-90
2023/03/20 01:22:23;;;;;;;16.73;9.63;;;;;;;12.47;40.58;99110.72;4273314;33;33136;-90
2023/03/20 01:24:51;;;;;;;15.98;9.60;;;;;;;12.60;40.49;99112.50;4259939;33;33089;-89
2023/03/20 01:27:19;;;;;;;19.02;9.57;;;;;;;12.52;40.67;99100.34;4272185;33;34113;-88
2023/03/20 01:29:47;;;;;;;15.23;9.70;;;;;;;12.43;40.72;99101.19;4259810;33;33465;-91
2023/03/20 01:32:17;;;;;;;19.00;10.48;;;;;;;12.55;40.94;99095.16;4256364;33;32704;-90
2023/03/20 01:34:46;;;;;;;18.50;10.75;;;;;;;12.55;40.81;99095.16;4246521;33;33904;-88
2023/03/20 01:37:17;;;;;;;16.05;9.23;;;;;;;12.57;40.88;99102.06;4248328;33;34653;-90
2023/03/20 01:39:45;;;;;;;15.32;10.10;;;;;;;12.45;40.84;99096.84;4274070;33;33685;-89
2023/03/20 01:42:16;;;;;;;15.68;9.73;;;;;;;12.49;40.90;99090.78;4267681;33;34229;-88
2023/03/20 01:44:44;;;;;;;15.82;9.77;;;;;;;12.37;41.62;99102.00;4259977;33;33790;-90
2023/03/20 01:47:22;;;;;;;15.27;9.70;;;;;;;12.32;41.06;99102.88;4280826;33;33588;-88
2023/03/20 01:50:25;;;;;;;16.87;9.75;;;;;;;12.27;41.24;99101.94;4266592;33;33509;-90
2023/03/20 01:53:01;;;;;;;16.67;9.85;;;;;;;12.31;41.11;99102.00;4262215;33;33796;-92
2023/03/20 01:55:29;;;;;;;16.62;9.95;;;;;;;12.29;42.15;99097.66;4259530;33;34081;-87
2023/03/20 01:57:59;;;;;;;16.73;9.63;;;;;;;12.17;41.66;99099.31;4261231;33;33532;-91
2023/03/20 02:00:29;;;;;;;15.75;9.45;;;;;;;12.27;41.85;99105.41;4271743;33;31981;-88
2023/03/20 02:02:57;;;;;;;19.60;9.88;;;;;;;12.15;41.78;99085.44;4287623;33;33537;-91
2023/03/20 02:05:27;;;;;;;15.20;10.25;;;;;;;12.12;41.63;99089.75;4247117;33;32799;-89
2023/03/20 02:08:22;;;;;;;15.82;10.15;;;;;;;12.26;42.34;99084.63;4261597;33;34589;-91
2023/03/20 02:10:50;;;;;;;17.80;10.50;;;;;;;12.09;42.67;99082.81;4272599;33;33074;-91
2023/03/20 02:13:20;;;;;;;14.38;9.38;;;;;;;12.09;42.03;99084.56;4263096;33;34308;-90
2023/03/20 02:16:13;;;;;;;17.42;10.30;;;;;;;12.07;41.94;99086.25;4275212;33;33423;-91
2023/03/20 02:18:46;;;;;;;15.32;10.13;;;;;;;12.07;42.16;99087.13;4251470;33;34420;-89
2023/03/20 02:21:20;;;;;;;14.15;8.55;;;;;;;12.18;43.08;99082.00;4260125;33;33365;-91
2023/03/20 02:24:14;;;;;;;13.50;9.32;;;;;;;12.08;42.43;99077.59;4274519;33;33780;-91
2023/03/20 02:26:52;;;;;;;17.27;10.00;;;;;;;11.89;42.82;99076.63;4275022;33;34812;-90
2023/03/20 02:29:45;;;;;;;17.35;10.00;;;;;;;12.00;42.57;99085.34;4260744;33;34141;-90
2023/03/20 02:32:34;;;;;;;16.42;9.75;;;;;;;11.80;42.68;99077.41;4284927;33;33953;-89
2023/03/20 02:35:16;;;;;;;15.05;10.00;;;;;;;11.90;42.25;99078.37;4283795;33;34659;-91
2023/03/20 02:37:52;;;;;;;15.55;10.35;;;;;;;12.07;42.44;99075.88;4260669;33;32845;-90
2023/03/20 02:40:37;;;;;;;14.63;9.73;;;;;;;12.08;42.03;99073.25;4261336;33;32818;-87
2023/03/20 02:43:43;;;;;;;15.43;10.35;;;;;;;12.09;42.54;99064.63;4275394;33;33611;-91
2023/03/20 02:46:16;;;;;;;18.10;10.57;;;;;;;11.91;42.49;99059.34;4271281;33;33686;-91
2023/03/20 02:48:57;;;;;;;16.00;10.40;;;;;;;11.82;43.06;99059.22;4283692;33;34647;-90
2023/03/20 02:51:34;;;;;;;15.88;10.30;;;;;;;11.87;43.02;99057.59;4262781;33;33116;-91
2023/03/20 02:54:27;;;;;;;18.85;10.80;;;;;;;11.82;43.03;99062.72;4273932;33;33110;-90
2023/03/20 02:57:04;;;;;;;18.02;10.60;;;;;;;11.88;42.65;99067.09;4258384;33;34410;-90
2023/03/20 03:00:17;;;;;;;19.30;12.05;;;;;;;11.78;42.87;99055.78;4259073;33;34181;-89
2023/03/20 03:03:12;;;;;;;19.92;10.90;;;;;;;11.73;42.98;99070.44;4259635;33;33786;-91
2023/03/20 03:05:44;;;;;;;17.70;11.07;;;;;;;11.65;42.91;99070.38;4269035;33;33588;-90
2023/03/20 03:08:15;;;;;;;17.62;10.57;;;;;;;11.61;43.15;99067.78;4263464;33;32710;-91
2023/03/20 03:10:47;;;;;;;17.00;10.63;;;;;;;11.42;43.20;99074.56;4265574;33;34031;-91
2023/03/20 03:13:18;;;;;;;18.10;10.93;;;;;;;11.50;42.69;99075.47;4259730;33;33615;-91
2023/03/20 03:15:49;;;;;;;16.80;10.63;;;;;;;11.23;43.13;99080.44;4249530;33;33262;-92
2023/03/20 03:18:22;;;;;;;17.65;10.82;;;;;;;10.92;43.74;99093.13;4260017;33;33917;-90
2023/03/20 03:20:55;;;;;;;18.70;10.50;;;;;;;11.00;43.50;99090.62;4284204;33;33198;-91
2023/03/20 03:23:43;;;;;;;17.67;10.60;;;;;;;10.83;44.09;99087.84;4261211;33;34049;-91
2023/03/20 03:26:24;;;;;;;17.62;10.00;;;;;;;10.82;44.41;99091.28;4268929;33;34273;-87
2023/03/20 03:28:57;;;;;;;18.25;10.48;;;;;;;10.70;44.48;99097.22;4274184;33;34779;-91
2023/03/20 03:31:25;;;;;;;16.90;10.63;;;;;;;10.58;45.05;99092.78;4239814;33;33322;-90
2023/03/20 03:33:58;;;;;;;22.10;11.75;;;;;;;10.55;44.97;99090.12;4266182;33;34263;-91
2023/03/20 03:36:34;;;;;;;16.48;10.25;;;;;;;10.70;44.91;99092.91;4260793;33;33944;-87
2023/03/20 03:39:11;;;;;;;14.77;10.13;;;;;;;10.73;44.73;99093.81;4273735;33;33821;-89
2023/03/20 03:41:41;;;;;;;16.23;9.73;;;;;;;10.73;44.73;99086.03;4260937;33;33757;-87
2023/03/20 03:44:28;;;;;;;16.67;10.90;;;;;;;10.44;45.05;99092.59;4259672;33;34121;-87
2023/03/20 03:47:09;;;;;;;17.40;10.63;;;;;;;10.51;45.06;99093.53;4261219;33;34103;-91
2023/03/20 03:49:43;;;;;;;14.02;10.02;;;;;;;10.53;44.87;99094.44;4261217;33;34008;-91
2023/03/20 03:52:14;;;;;;;18.08;10.65;;;;;;;10.70;44.59;99100.69;4249281;33;33085;-91
2023/03/20 03:54:45;;;;;;;15.35;9.73;;;;;;;10.58;44.92;99102.28;4248728;33;33797;-87
2023/03/20 03:57:20;;;;;;;15.60;10.10;;;;;;;10.56;44.53;99111.75;4270509;33;33561;-89
2023/03/20 03:59:49;;;;;;;17.02;10.80;;;;;;;10.43;44.94;99110.72;4274939;33;33810;-91
2023/03/20 04:02:18;;;;;;;18.58;10.88;;;;;;;10.45;45.16;99103.81;4248884;33;33966;-91
2023/03/20 04:05:06;;;;;;;16.67;11.43;;;;;;;10.44;44.77;99105.56;4261692;33;34603;-89
2023/03/20 04:07:35;;;;;;;16.62;11.05;;;;;;;10.47;44.52;99096.97;4267327;33;33092;-88
2023/03/20 04:10:03;;;;;;;16.55;10.43;;;;;;;10.50;44.75;99104.78;4271452;33;33618;-91
2023/03/20 04:12:37;;;;;;;13.77;9.30;;;;;;;10.36;44.88;99106.31;4261938;33;33221;-92
2023/03/20 04:15:08;;;;;;;15.38;10.68;;;;;;;10.39;44.71;99112.41;4259044;33;34754;-90
2023/03/20 04:17:36;;;;;;;16.08;10.75;;;;;;;10.21;45.22;99113.00;4258585;33;33183;-89
2023/03/20 04:20:04;;;;;;;13.70;9.75;;;;;;;10.36;44.67;99109.78;4260577;33;33439;-90
2023/03/20 04:22:33;;;;;;;15.32;10.43;;;;;;;10.35;45.14;99117.53;4260646;33;34860;-87
2023/03/20 04:25:05;;;;;;;15.27;10.20;;;;;;;10.36;44.72;99117.56;4248834;33;32403;-89
2023/03/20 04:27:33;;;;;;;16.20;10.25;;;;;;;10.46;44.47;99123.72;4287376;33;33548;-89
2023/03/20 04:30:02;;;;;;;16.98;9.63;;;;;;;10.14;45.18;99126.72;4286243;33;34666;-89
2023/03/20 04:32:30;;;;;;;15.60;10.02;;;;;;;10.32;45.13;99126.13;4257389;33;33843;-88
2023/03/20 04:34:58;;;;;;;16.02;9.90;;;;;;;10.31;45.04;99123.53;4259410;33;33958;-87
2023/03/20 04:37:26;;;;;;;14.80;9.93;;;;;;;10.30;44.72;99120.06;4273648;33;33461;-89
2023/03/20 04:39:54;;;;;;;17.23;10.02;;;;;;;10.13;45.10;99119.81;4260379;33;33638;-87
2023/03/20 04:42:22;;;;;;;16.90;10.70;;;;;;;10.27;44.87;99116.56;4263046;33;33499;-87
2023/03/20 04:44:50;;;;;;;16.20;10.52;;;;;;;10.06;45.54;99119.69;4273332;33;33961;-87
2023/03/20 04:47:18;;;;;;;19.42;10.90;;;;;;;9.83;45.82;99119.38;4259819;33;33374;-91
2023/03/20 04:49:46;;;;;;;17.52;11.20;;;;;;;9.72;46.25;99114.88;4248488;33;33899;-89
2023/03/20 04:52:14;;;;;;;17.33;11.30;;;;;;;9.73;46.51;99108.84;4258960;33;32947;-88
2023/03/20 04:54:41;;;;;;;16.58;11.30;;;;;;;9.77;46.14;99114.94;4275865;33;34263;-90
2023/03/20 04:57:09;;;;;;;18.42;11.73;;;;;;;9.72;45.93;99117.47;4277042;33;33986;-91
2023/03/20 04:59:37;;;;;;;16.83;12.10;;;;;;;9.65;46.41;99118.22;4274221;33;33900;-91
2023/03/20 05:02:05;;;;;;;19.25;12.37;;;;;;;9.82;46.62;99115.91;4273678;33;33685;-91
2023/03/20 05:04:33;;;;;;;16.92;11.65;;;;;;;9.69;46.72;99125.19;4249656;33;34277;-91
2023/03/20 05:07:02;;;;;;;17.10;12.57;;;;;;;9.35;47.86;99121.19;4287713;33;33395;-92
2023/03/20 05:09:30;;;;;;;16.48;11.85;;;;;;;9.54;47.21;99122.38;4285350;33;33525;-90
2023/03/20 05:12:00;;;;;;;17.75;11.57;;;;;;;9.33;47.66;99127.22;4260133;33;32552;-90
2023/03/20 05:14:29;;;;;;;14.38;11.25;;;;;;;9.47;47.22;99126.59;4274320;33;34145;-91
2023/03/20 05:16:58;;;;;;;17.67;11.07;;;;;;;9.11;48.07;99128.53;4287890;33;33455;-92
2023/03/20 05:19:26;;;;;;;18.20;10.82;;;;;;;9.37;47.16;99137.63;4263025;33;33235;-91
2023/03/20 05:21:55;;;;;;;16.80;11.18;;;;;;;9.43;47.74;99144.59;4273701;33;34161;-92
2023/03/20 05:24:24;;;;;;;16.12;10.82;;;;;;;9.33;47.67;99143.59;4261210;33;33596;-92
2023/03/20 05:26:52;;;;;;;16.98;11.68;;;;;;;9.07;47.51;99147.44;4250311;33;33645;-91
2023/03/20 05:29:21;;;;;;;17.80;11.48;;;;;;;9.30;47.84;99147.84;4260328;33;34465;-90
2023/03/20 05:31:55;;;;;;;14.43;10.27;;;;;;;9.61;47.64;99149.22;4267037;33;34712;-89
2023/03/20 05:34:24;;;;;;;16.83;10.40;;;;;;;9.69;46.84;99142.44;4265390;33;34583;-91
2023/03/20 05:36:53;;;;;;;17.05;11.07;;;;;;;9.90;46.40;99141.91;4273124;33;34551;-92
2023/03/20 05:39:22;;;;;;;15.68;10.48;;;;;;;9.94;46.63;99133.34;4263805;33;34037;-90
2023/03/20 05:41:50;;;;;;;15.48;10.82;;;;;;;10.08;46.30;99147.37;4256453;33;33399;-88
2023/03/20 05:44:19;;;;;;;16.23;10.05;;;;;;;10.05;46.35;99146.47;4270736;33;33079;-90
2023/03/20 05:46:47;;;;;;;16.85;11.18;;;;;;;10.15;46.32;99153.50;4247316;33;34221;-88
2023/03/20 05:49:15;;;;;;;15.13;10.05;;;;;;;9.84;47.05;99153.03;4241542;33;33326;-90
2023/03/20 05:51:45;;;;;;;14.40;10.07;;;;;;;10.07;46.50;99150.78;4245706;33;34239;-91
2023/03/20 05:54:13;;;;;;;14.95;10.35;;;;;;;10.05;46.84;99155.09;4265194;33;34731;-90
2023/03/20 05:56:42;;;;;;;16.48;10.35;;;;;;;10.23;46.65;99157.94;4258788;33;34701;-91
2023/03/20 05:59:10;;;;;;;16.83;9.90;;;;;;;10.27;47.24;99163.22;4240513;33;33514;-87
2023/03/20 06:01:38;;;;;;;15.13;9.82;;;;;;;10.26;47.03;99157.13;4247401;33;34215;-88
2023/03/20 06:04:07;;;;;;;13.68;9.10;;;;;;;10.32;46.28;99166.72;4270694;33;33562;-90
2023/03/20 06:06:36;;;;;;;13.43;9.52;;;;;;;10.20;46.38;99162.22;4250258;33;33318;-89
2023/03/20 06:09:04;;;;;;;15.15;9.73;;;;;;;10.19;47.44;99168.22;4270030;33;34644;-89
2023/03/20 06:11:32;;;;;;;16.15;9.73;;;;;;;10.24;46.81;99170.06;4265538;33;33774;-90
2023/03/20 06:14:04;;;;;;;13.07;8.35;;;;;;;10.40;45.81;99172.88;4252220;33;33714;-90
2023/03/20 06:16:32;;;;;;;13.93;8.73;;;;;;;10.60;45.84;99171.41;4257920;33;33869;-90
2023/03/20 06:19:00;;;;;;;13.55;9.02;;;;;;;10.74;44.72;99175.91;4257728;33;34613;-89
2023/03/20 06:21:28;;;;;;;14.18;9.55;;;;;;;10.74;43.95;99171.59;4252159;33;34806;-88
2023/03/20 06:23:56;;;;;;;17.65;9.07;;;;;;;10.85;43.73;99174.31;4233417;33;34438;-89
2023/03/20 06:26:24;;;;;;;17.52;8.20;;;;;;;10.94;43.33;99172.69;4233693;33;34198;-90
2023/03/20 06:28:52;;;;;;;15.98;8.85;;;;;;;11.04;42.33;99176.25;4233678;33;34570;-90
2023/03/20 06:31:20;;;;;;;14.57;9.40;;;;;;;11.08;42.53;99167.66;4232786;33;34102;-89
2023/03/20 06:33:48;;;;;;;13.30;8.73;;;;;;;10.88;42.29;99172.63;4223273;33;32352;-89
2023/03/20 06:36:16;;;;;;;17.45;9.65;;;;;;;11.16;41.36;99183.31;4260038;33;33483;-89
2023/03/20 06:38:44;;;;;;;14.85;9.43;;;;;;;10.93;41.79;99180.47;4259826;33;34688;-89
2023/03/20 06:41:12;;;;;;;17.55;8.80;;;;;;;11.13;41.33;99178.94;4259892;33;33876;-90
2023/03/20 06:44:03;;;;;;;16.08;9.82;;;;;;;11.09;41.02;99184.97;4248472;33;35113;-89
2023/03/20 06:46:34;;;;;;;14.52;8.68;;;;;;;11.00;42.50;99186.59;4245491;33;33985;-87
2023/03/20 06:49:02;;;;;;;15.25;9.15;;;;;;;11.19;40.48;99184.22;4241185;33;34633;-87
2023/03/20 06:51:30;;;;;;;14.85;8.38;;;;;;;11.32;40.65;99179.13;4260583;33;33451;-90
2023/03/20 06:53:58;;;;;;;14.45;8.75;;;;;;;11.12;40.86;99177.22;4246975;33;33984;-88
2023/03/20 06:56:25;;;;;;;13.55;9.48;;;;;;;11.33;40.44;99184.38;4259658;33;33377;-89
2023/03/20 06:58:53;;;;;;;13.90;8.70;;;;;;;11.22;40.92;99182.53;4270442;33;33277;-89
2023/03/20 07:01:20;;;;;;;18.37;8.52;;;;;;;11.47;40.60;99186.22;4235606;33;34860;-90
2023/03/20 07:03:49;;;;;;;15.43;9.13;;;;;;;11.67;40.41;99179.50;4246285;33;34208;-89
2023/03/20 07:06:20;;;;;;;14.25;9.80;;;;;;;11.76;40.37;99184.75;4232050;33;32787;-87
2023/03/20 07:08:51;;;;;;;15.38;9.13;;;;;;;11.84;40.50;99182.25;4239759;33;32180;-88
2023/03/20 07:11:19;;;;;;;16.20;8.98;;;;;;;11.91;40.04;99178.84;4259032;33;34228;-88
2023/03/20 07:13:48;;;;;;;17.85;9.15;;;;;;;11.82;40.22;99186.50;4232614;33;34228;-86
2023/03/20 07:16:16;;;;;;;21.35;9.77;;;;;;;11.98;40.45;99190.16;4253221;33;33506;-86
2023/03/20 07:18:45;;;;;;;14.45;8.88;;;;;;;12.40;39.31;99184.34;4232295;33;33500;-86
2023/03/20 07:21:18;;;;;;;15.27;8.85;;;;;;;12.57;38.72;99198.31;4268654;33;34418;-84
2023/03/20 07:23:46;;;;;;;12.37;7.28;;;;;;;12.96;37.44;99183.75;4246475;33;33654;-88
2023/03/20 07:26:14;;;;;;;13.90;8.38;;;;;;;12.78;37.76;99183.69;4269974;33;33440;-88
2023/03/20 07:28:41;;;;;;;15.27;8.07;;;;;;;12.89;37.22;99189.78;4259275;33;33793;-86
2023/03/20 07:31:23;;;;;;;19.85;10.48;;;;;;;12.73;37.74;99195.78;4259241;33;34182;-87
2023/03/20 07:33:51;;;;;;;25.73;11.25;;;;;;;12.93;37.84;99186.34;4246188;33;33923;-86
2023/03/20 07:36:19;;;;;;;14.65;8.75;;;;;;;13.00;37.75;99192.44;4259198;33;34521;-86
2023/03/20 07:38:46;;;;;;;15.75;8.65;;;;;;;13.19;36.74;99188.16;4269534;33;35336;-89
2023/03/20 07:41:14;;;;;;;18.00;8.77;;;;;;;13.32;36.83;99184.72;4246114;33;34251;-88
2023/03/20 07:43:42;;;;;;;16.08;8.88;;;;;;;13.12;37.46;99189.88;4242747;33;34750;-88
2023/03/20 07:46:12;;;;;;;16.02;9.25;;;;;;;12.89;36.38;99189.78;4252288;33;33440;-88
2023/03/20 07:48:40;;;;;;;12.45;7.60;;;;;;;13.52;35.70;99192.56;4249046;33;32913;-87
2023/03/20 07:51:08;;;;;;;10.70;7.10;;;;;;;13.72;35.71;99196.09;4256101;33;32728;-89
2023/03/20 07:53:35;;;;;;;15.13;8.18;;;;;;;13.86;34.69;99191.75;4259758;33;33526;-88
2023/03/20 07:56:03;;;;;;;14.20;7.62;;;;;;;13.78;35.31;99190.00;4259420;33;33246;-86
2023/03/20 07:58:31;;;;;;;12.07;6.62;;;;;;;13.97;34.83;99188.25;4252522;33;34155;-89
2023/03/20 08:01:01;;;;;;;11.73;6.75;;;;;;;14.03;35.01;99194.34;4260573;33;34397;-88
2023/03/20 08:03:30;;;;;;;12.18;6.62;;;;;;;13.74;35.81;99198.69;4248409;33;33793;-87
2023/03/20 08:05:58;;;;;;;12.73;7.03;;;;;;;14.03;34.86;99196.94;4253435;33;33038;-88
2023/03/20 08:08:25;;;;;;;12.15;7.37;;;;;;;14.25;34.74;99195.19;4246288;33;33691;-87
2023/03/20 08:10:53;;;;;;;11.68;6.55;;;;;;;14.38;34.45;99203.84;4257997;33;33749;-87
2023/03/20 08:13:21;;;;;;;10.63;6.53;;;;;;;14.28;34.55;99196.91;4245968;33;34638;-87
2023/03/20 08:15:48;;;;;;;10.98;6.87;;;;;;;14.43;34.26;99202.06;4259780;33;33713;-88
2023/03/20 08:18:16;;;;;;;10.80;5.97;;;;;;;14.77;34.28;99202.91;4260479;33;34358;-90
2023/03/20 08:20:43;;;;;;;12.88;7.82;;;;;;;14.99;33.77;99201.06;4248304;33;32860;-88
2023/03/20 08:23:11;;;;;;;11.40;5.80;;;;;;;14.75;34.17;99198.56;4273214;33;34147;-90
2023/03/20 08:25:39;;;;;;;15.05;6.70;;;;;;;14.90;33.70;99198.50;4260173;33;32370;-90
2023/03/20 08:28:06;;;;;;;10.68;5.82;;;;;;;15.01;33.50;99201.06;4273100;33;33418;-88
2023/03/20 08:30:34;;;;;;;12.45;6.97;;;;;;;15.17;33.44;99202.72;4260154;33;34181;-88
2023/03/20 08:33:02;;;;;;;12.35;6.32;;;;;;;15.55;32.37;99205.09;4260309;33;34398;-89
2023/03/20 08:35:29;;;;;;;17.02;7.22;;;;;;;15.60;32.51;99206.81;4248353;33;33049;-90
2023/03/20 08:38:00;;;;;;;13.57;6.82;;;;;;;15.57;32.89;99205.97;4273208;33;34540;-90
2023/03/20 08:40:28;;;;;;;13.50;7.10;;;;;;;15.31;33.24;99205.28;4260122;33;33801;-90
2023/03/20 08:42:55;;;;;;;11.90;6.07;;;;;;;15.19;33.66;99205.31;4271692;33;34173;-88
2023/03/20 08:45:26;;;;;;;15.20;6.65;;;;;;;15.38;33.15;99206.06;4259700;33;34245;-87
2023/03/20 08:47:53;;;;;;;18.52;6.43;;;;;;;15.71;32.84;99207.63;4271565;33;33125;-87
2023/03/20 08:50:21;;;;;;;24.25;11.88;;;;;;;15.57;33.27;99207.72;4272833;33;33544;-89
2023/03/20 08:52:49;;;;;;;37.65;16.05;;;;;;;15.62;33.68;99205.06;4271795;33;34463;-90
2023/03/20 08:55:16;;;;;;;19.42;9.70;;;;;;;15.44;34.30;99212.12;4272909;33;33311;-89
2023/03/20 08:57:45;;;;;;;12.90;7.40;;;;;;;15.38;34.30;99217.41;4271694;33;33929;-88
2023/03/20 09:00:14;;;;;;;11.85;6.95;;;;;;;15.78;33.38;99211.94;4271723;33;33826;-88
2023/03/20 09:02:42;;;;;;;14.70;6.55;;;;;;;16.04;33.40;99216.97;4271740;33;33560;-87
2023/03/20 09:05:10;;;;;;;17.70;6.82;;;;;;;15.84;33.68;99221.50;4272838;33;33671;-87
2023/03/20 09:07:37;;;;;;;15.75;7.95;;;;;;;15.75;34.21;99230.25;4272912;33;33627;-90
2023/03/20 09:10:05;;;;;;;17.87;8.25;;;;;;;15.87;35.20;99222.31;4271605;33;33666;-87
2023/03/20 09:12:33;;;;;;;17.00;7.80;;;;;;;15.89;34.27;99222.31;4271402;33;34500;-87
2023/03/20 09:15:01;;;;;;;14.70;8.88;;;;;;;15.74;34.49;99226.78;4271525;33;33833;-88
2023/03/20 09:17:30;;;;;;;16.55;8.15;;;;;;;15.72;35.20;99227.66;4259930;33;32868;-90
2023/03/20 09:19:57;;;;;;;16.05;9.38;;;;;;;15.86;34.66;99224.97;4271627;33;34534;-88
2023/03/20 09:22:25;;;;;;;13.57;8.05;;;;;;;15.62;35.61;99228.59;4259805;33;34275;-88
2023/03/20 09:24:52;;;;;;;15.40;7.90;;;;;;;15.98;34.08;99227.47;4271428;33;33524;-88
2023/03/20 09:27:20;;;;;;;13.73;7.75;;;;;;;16.08;34.48;99221.28;4271498;33;34539;-89
2023/03/20 09:29:47;;;;;;;13.35;7.28;;;;;;;15.74;34.95;99231.16;4272435;33;34079;-89
2023/03/20 09:32:15;;;;;;;14.45;7.87;;;;;;;16.10;34.75;99221.25;4271247;33;33830;-88
2023/03/20 09:34:43;;;;;;;15.70;7.78;;;;;;;16.10;34.18;99210.81;4259714;33;32560;-89
2023/03/20 09:37:10;;;;;;;15.35;8.65;;;;;;;15.45;35.46;99226.94;4271154;33;32618;-88
2023/03/20 09:39:38;;;;;;;15.65;7.53;;;;;;;15.78;34.65;99218.03;4272269;33;33798;-87
2023/03/20 09:42:27;;;;;;;13.43;7.62;;;;;;;16.18;33.42;99222.09;4272282;33;33525;-88
2023/03/20 09:45:21;;;;;;;20.35;11.05;;;;;;;15.90;34.56;99216.22;4270944;33;34445;-87
2023/03/20 09:48:10;;;;;;;14.68;7.75;;;;;;;16.29;34.06;99218.50;4261692;33;33712;-87
2023/03/20 09:50:50;;;;;;;13.40;7.47;;;;;;;16.32;33.87;99212.34;4262116;33;33415;-89
2023/03/20 09:54:01;;;;;;;14.10;7.25;;;;;;;16.75;32.62;99211.94;4273430;33;33137;-87
2023/03/20 09:56:29;;;;;;;11.50;7.03;;;;;;;16.75;32.55;99214.56;4215739;33;34051;-87
2023/03/20 09:59:00;;;;;;;15.85;7.78;;;;;;;16.62;32.13;99223.37;4278399;33;33576;-87
2023/03/20 10:01:34;;;;;;;11.30;6.20;;;;;;;16.46;33.19;99223.53;4261527;33;33399;-88
2023/03/20 10:04:10;;;;;;;13.55;7.57;;;;;;;16.67;33.37;99226.84;4273488;33;33744;-88
2023/03/20 10:06:37;;;;;;;11.93;6.97;;;;;;;16.27;33.03;99225.47;4273411;33;34371;-87
2023/03/20 10:09:16;;;;;;;12.13;7.35;;;;;;;16.33;32.64;99211.47;4275147;33;34285;-89
2023/03/20 10:12:22;;;;;;;14.38;7.65;;;;;;;16.30;33.75;99214.13;4275292;33;33833;-89
2023/03/20 10:15:31;;;;;;;14.25;7.85;;;;;;;16.29;33.13;99215.87;4275736;33;33579;-87
2023/03/20 10:18:08;;;;;;;13.40;7.15;;;;;;;16.66;32.19;99214.59;4265845;33;33611;-88
2023/03/20 10:20:53;;;;;;;21.67;7.72;;;;;;;16.60;33.38;99225.16;4251958;33;33126;-89
2023/03/20 10:23:30;;;;;;;17.33;7.25;;;;;;;16.50;33.07;99217.38;4275352;33;34999;-89
2023/03/20 10:26:06;;;;;;;16.27;7.68;;;;;;;16.99;31.78;99211.62;4275035;33;33829;-88
2023/03/20 10:28:49;;;;;;;12.52;7.10;;;;;;;16.77;32.51;99213.63;4275107;33;33463;-89
2023/03/20 10:31:27;;;;;;;15.02;7.95;;;;;;;16.83;32.10;99204.00;4288034;33;34460;-90
2023/03/20 10:34:13;;;;;;;14.55;7.72;;;;;;;17.09;31.74;99201.06;4275106;33;34965;-90
2023/03/20 10:36:55;;;;;;;14.63;8.10;;;;;;;17.44;31.61;99201.41;4259545;33;34572;-88
2023/03/20 10:39:51;;;;;;;19.40;7.07;;;;;;;17.23;31.79;99206.94;4246453;33;32602;-89
2023/03/20 10:42:23;;;;;;;14.50;9.13;;;;;;;17.66;32.14;99198.50;4259282;33;34030;-88
2023/03/20 10:44:56;;;;;;;12.98;6.85;;;;;;;17.23;31.85;99199.09;4247391;33;33364;-89
2023/03/20 10:47:28;;;;;;;11.65;7.15;;;;;;;17.59;31.59;99199.47;4246602;33;34187;-88
2023/03/20 10:50:11;;;;;;;17.42;7.97;;;;;;;17.45;31.06;99197.91;4246652;33;34251;-88
2023/03/20 10:52:40;;;;;;;13.48;7.10;;;;;;;17.15;31.30;99203.56;4234798;33;32523;-89
2023/03/20 10:55:20;;;;;;;13.27;7.32;;;;;;;17.53;30.33;99200.41;4246794;33;34834;-89
2023/03/20 10:57:57;;;;;;;16.62;7.70;;;;;;;17.54;30.55;99190.78;4246688;33;34533;-87
2023/03/20 11:00:25;;;;;;;10.20;6.93;;;;;;;17.54;30.43;99191.69;4235085;33;33624;-88
2023/03/20 11:02:53;;;;;;;13.77;6.78;;;;;;;17.71;30.29;99189.66;4269754;33;33802;-89
2023/03/20 11:05:32;;;;;;;17.85;7.30;;;;;;;17.89;30.21;99193.78;4259515;33;35043;-87
2023/03/20 11:08:21;;;;;;;11.25;6.53;;;;;;;17.99;29.63;99182.25;4246334;33;33040;-88
2023/03/20 11:10:57;;;;;;;12.48;7.18;;;;;;;17.50;30.85;99187.34;4234729;33;33201;-88
2023/03/20 11:13:51;;;;;;;13.05;7.65;;;;;;;18.06;29.29;99171.63;4234590;33;33631;-87
2023/03/20 11:16:24;;;;;;;13.88;6.62;;;;;;;17.34;30.78;99172.75;4245737;33;33873;-88
2023/03/20 11:18:55;;;;;;;;;;;;;;;17.73;30.31;99171.28;4246182;33;34242;-88
2023/03/20 11:21:28;;;;;;;14.13;7.47;;;;;;;17.58;31.15;99175.00;4269954;33;33777;-89
2023/03/20 11:23:56;;;;;;;15.82;7.95;;;;;;;18.05;30.49;99165.53;4259091;33;33846;-87
2023/03/20 11:26:29;;;;;;;13.57;7.72;;;;;;;17.91;31.00;99176.22;4246191;33;33475;-88
2023/03/20 11:28:58;;;;;;;17.95;8.15;;;;;;;17.72;30.82;99174.78;4259384;33;34715;-88
2023/03/20 11:31:39;;;;;;;13.73;7.85;;;;;;;17.62;31.19;99167.97;4246145;33;34184;-88
2023/03/20 11:34:14;;;;;;;13.98;7.97;;;;;;;17.35;31.11;99164.88;4234506;33;33004;-89
2023/03/20 11:36:59;;;;;;;18.52;8.32;;;;;;;17.24;31.43;99166.78;4258954;33;33245;-89
2023/03/20 11:39:38;;;;;;;15.98;8.02;;;;;;;16.99;32.18;99164.50;4235304;33;32667;-89
2023/03/20 11:42:23;;;;;;;15.98;8.18;;;;;;;17.59;30.54;99166.25;4259201;33;32775;-88
2023/03/20 11:45:12;;;;;;;60.67;38.53;;;;;;;17.54;30.77;99162.84;4246315;33;33597;-87
2023/03/20 11:47:40;;;;;;;17.10;8.98;;;;;;;17.05;32.02;99155.69;4246295;33;33976;-89